El Turbio, Argentina
Current Conditions -  °F | °C
As of 4:00 PM on Friday 24 Oct 2014 (Local Time) from SCCI Reporting Station
Scattered Clouds Scattered Clouds  
Wind Chill: 57°   Ceiling: Unl
Heat Index: 57°   Visibility: 6mi
Dew Point: 37°   Wind: 38mph
Humidity: 48%   Direction: 250°WSW
Pressure: 29.65"   Gusts: NA
Location:  51.61°S, 72.19°W
Report Text: SCCI 241900Z 25033KT 9999 SCT025 SCT120 14/03 Q1004 NOSIG
Loading
Personal Weather Stations






























Interactive Weather Map
Tropical Storm Tracking
New forecast layout! Learn more

10-Day Weather Forecast

Advertisements
Track Severe Weather on mobile